Carlton, Louisiana
Current Conditions -  °F | °C
As of 6:15 AM on Monday 24 Nov 2014 (Local Time) from KRSN Reporting Station
Clear Clear  
Wind Chill: 50°   Ceiling: Unl
Heat Index: 50°   Visibility: 10mi
Dew Point: 42°   Wind: 6mph
Humidity: 73%   Direction: 320°NW
Pressure: 29.89"   Gusts: NA
Location:  32.5064°N, 92.3457°W
Report Text: KRSN 241215Z AUTO 32005KT 10SM CLR 10/06 A2989 RMK AO2 T01010055
Loading
Personal Weather Stations






























Interactive Weather Map New forecast layout! Learn more

10-Day Weather Forecast

Advertisements
Track Severe Weather on mobile